Time;durP1;ratioP1;P1;durP2;ratioP2;P2;SDS_P1;SDS_P2;PMS_P1;PMS_P2;Temp;Humidity;BMP_temperature;BMP_pressure;BME280_temperature;BME280_humidity;BME280_pressure;Samples;Min_cycle;Max_cycle;Signal;HPM_P1;HPM_P2
2024/01/16 00:00:12;;;;;;;10.18;2.10;;;-0.20;99.90;;;;;;5063605;28;20501;-67
2024/01/16 00:02:38;;;;;;;8.05;1.88;;;-0.20;99.90;;;;;;5080260;28;20044;-64
2024/01/16 00:05:04;;;;;;;10.68;1.30;;;-0.10;99.90;;;;;;5080581;28;20038;-66
2024/01/16 00:07:29;;;;;;;8.40;1.63;;;-0.20;99.90;;;;;;5079012;28;20492;-67
2024/01/16 00:09:55;;;;;;;5.85;1.52;;;-0.10;99.90;;;;;;5079801;28;20102;-65
2024/01/16 00:12:21;;;;;;;6.80;1.20;;;-0.10;99.90;;;;;;5081817;28;20122;-65
2024/01/16 00:14:46;;;;;;;7.60;1.10;;;-0.10;99.90;;;;;;5059957;28;20055;-65
2024/01/16 00:17:12;;;;;;;7.03;1.40;;;-0.20;99.90;;;;;;5079139;28;20056;-65
2024/01/16 00:19:38;;;;;;;7.00;1.20;;;-0.10;99.90;;;;;;5080261;28;20147;-65
2024/01/16 00:22:04;;;;;;;9.77;1.33;;;-0.10;99.90;;;;;;5078565;28;20080;-62
2024/01/16 00:24:30;;;;;;;10.32;1.88;;;-0.20;99.90;;;;;;5080151;28;20401;-63
2024/01/16 00:26:56;;;;;;;7.63;0.98;;;-0.20;99.90;;;;;;5079931;28;20123;-62
2024/01/16 00:29:22;;;;;;;11.38;1.13;;;-0.20;99.90;;;;;;5078269;28;20118;-64
2024/01/16 00:31:47;;;;;;;5.38;0.90;;;-0.20;99.90;;;;;;5080487;28;20040;-64
2024/01/16 00:34:13;;;;;;;7.30;1.25;;;-0.20;99.90;;;;;;5079167;28;20444;-65
2024/01/16 00:36:39;;;;;;;10.00;1.75;;;-0.30;99.90;;;;;;5082367;28;20491;-63
2024/01/16 00:39:05;;;;;;;5.88;1.15;;;-0.30;99.90;;;;;;5077381;28;20178;-64
2024/01/16 00:41:30;;;;;;;7.20;1.27;;;-0.30;99.90;;;;;;5077987;28;20038;-64
2024/01/16 00:43:56;;;;;;;5.97;1.10;;;-0.30;99.90;;;;;;5079998;28;20044;-63
2024/01/16 00:46:22;;;;;;;5.53;0.82;;;-0.40;99.90;;;;;;5077796;28;20154;-62
2024/01/16 00:48:48;;;;;;;4.60;0.75;;;-0.40;99.90;;;;;;5082207;28;20040;-66
2024/01/16 00:51:13;;;;;;;8.75;1.15;;;-0.40;99.90;;;;;;5078157;28;20046;-64
2024/01/16 00:53:43;;;;;;;5.90;0.88;;;-0.40;99.90;;;;;;5077387;28;20056;-64
2024/01/16 00:56:09;;;;;;;7.30;0.95;;;-0.50;99.90;;;;;;5076532;28;20075;-65
2024/01/16 00:58:35;;;;;;;5.70;0.85;;;-0.50;99.90;;;;;;5079361;28;20089;-63
2024/01/16 01:01:01;;;;;;;6.28;1.95;;;-0.50;99.90;;;;;;5078086;28;20040;-66
2024/01/16 01:03:26;;;;;;;9.75;1.17;;;-0.50;99.90;;;;;;5081092;28;20054;-65
2024/01/16 01:05:52;;;;;;;6.82;1.02;;;-0.60;99.90;;;;;;5077859;28;20068;-66
2024/01/16 01:08:18;;;;;;;5.35;1.25;;;-0.50;99.90;;;;;;5079349;28;20118;-64
2024/01/16 01:10:44;;;;;;;8.32;1.58;;;-0.50;99.90;;;;;;5062231;28;20117;-66
2024/01/16 01:13:10;;;;;;;6.28;0.93;;;-0.60;99.90;;;;;;5079528;28;20483;-66
2024/01/16 01:15:35;;;;;;;8.00;1.00;;;-0.60;99.90;;;;;;5081119;28;20399;-64
2024/01/16 01:18:01;;;;;;;8.27;1.20;;;-0.50;99.90;;;;;;5061400;28;20648;-63
2024/01/16 01:20:27;;;;;;;12.75;0.98;;;-0.50;99.90;;;;;;5080473;28;20048;-64
2024/01/16 01:22:52;;;;;;;8.05;1.20;;;-0.60;99.90;;;;;;5079021;28;20307;-64
2024/01/16 01:25:18;;;;;;;6.95;1.00;;;-0.60;99.90;;;;;;5080036;28;20050;-65
2024/01/16 01:27:44;;;;;;;4.30;1.02;;;-0.60;99.90;;;;;;5079149;28;20112;-63
2024/01/16 01:30:10;;;;;;;4.68;1.48;;;-0.60;99.90;;;;;;5073950;28;20102;-66
2024/01/16 01:32:37;;;;;;;4.95;1.05;;;-0.60;99.90;;;;;;5076064;28;20044;-66
2024/01/16 01:35:03;;;;;;;6.93;0.77;;;-0.60;99.90;;;;;;5078654;28;20044;-64
2024/01/16 01:37:28;;;;;;;3.58;0.70;;;-0.60;99.90;;;;;;5080655;28;20032;-62
2024/01/16 01:39:54;;;;;;;7.57;0.82;;;-0.60;99.90;;;;;;5080349;28;20459;-64
2024/01/16 01:42:20;;;;;;;4.78;0.98;;;-0.70;99.90;;;;;;5079156;28;20048;-63
2024/01/16 01:44:45;;;;;;;5.82;1.13;;;-0.70;99.90;;;;;;5079470;28;20040;-64
2024/01/16 01:47:11;;;;;;;7.55;1.80;;;-0.60;99.90;;;;;;5063604;28;20352;-65
2024/01/16 01:49:38;;;;;;;6.38;0.90;;;-0.60;99.90;;;;;;5078100;28;20036;-65
2024/01/16 01:52:04;;;;;;;5.57;0.95;;;-0.60;99.90;;;;;;5063444;28;20146;-65
2024/01/16 01:54:32;;;;;;;4.50;0.90;;;-0.50;99.90;;;;;;5077677;28;20079;-65
2024/01/16 01:56:57;;;;;;;7.93;1.55;;;-0.50;99.90;;;;;;5079829;28;20074;-64
2024/01/16 01:59:24;;;;;;;4.25;0.90;;;-0.50;99.90;;;;;;5076657;28;20048;-66
2024/01/16 02:01:54;;;;;;;9.45;1.20;;;-0.50;99.90;;;;;;5078263;28;20128;-64
2024/01/16 02:04:21;;;;;;;6.22;0.90;;;-0.50;99.90;;;;;;5078143;28;20048;-63
2024/01/16 02:06:47;;;;;;;8.40;1.65;;;-0.50;99.90;;;;;;5077888;28;20040;-66
2024/01/16 02:09:15;;;;;;;8.70;1.85;;;-0.50;99.90;;;;;;5077989;28;20032;-65
2024/01/16 02:11:41;;;;;;;4.35;0.80;;;-0.40;99.90;;;;;;5077348;28;20101;-65
2024/01/16 02:14:07;;;;;;;9.40;1.23;;;-0.40;99.90;;;;;;5080025;28;20457;-65
2024/01/16 02:16:38;;;;;;;4.82;0.98;;;-0.50;99.90;;;;;;5061073;28;20081;-64
2024/01/16 02:19:04;;;;;;;7.20;1.20;;;-0.40;99.90;;;;;;5081117;28;20051;-64
2024/01/16 02:21:39;;;;;;;11.40;1.02;;;-0.50;99.90;;;;;;5082775;28;20068;-63
2024/01/16 02:24:10;;;;;;;10.40;0.98;;;-0.40;99.90;;;;;;5065634;28;20040;-64
2024/01/16 02:26:36;;;;;;;8.25;1.60;;;-0.50;99.90;;;;;;5080224;28;20040;-64
2024/01/16 02:29:04;;;;;;;3.78;0.70;;;-0.50;99.90;;;;;;5082395;28;20043;-65
2024/01/16 02:31:30;;;;;;;9.82;1.08;;;-0.50;99.90;;;;;;5083123;28;20047;-65
2024/01/16 02:33:56;;;;;;;6.75;1.08;;;-0.50;99.90;;;;;;5083627;28;20040;-64
2024/01/16 02:36:22;;;;;;;8.20;1.23;;;-0.50;99.90;;;;;;5081073;28;20109;-65
2024/01/16 02:38:47;;;;;;;5.10;1.30;;;-0.50;99.90;;;;;;5081979;28;20714;-62
2024/01/16 02:41:15;;;;;;;7.93;1.67;;;-0.50;99.90;;;;;;5081738;28;20048;-64
2024/01/16 02:43:41;;;;;;;6.68;0.98;;;-0.50;99.90;;;;;;5077866;28;20048;-64
2024/01/16 02:46:08;;;;;;;4.03;0.88;;;-0.50;99.90;;;;;;5064828;28;20049;-65
2024/01/16 02:48:37;;;;;;;3.80;0.80;;;-0.50;99.90;;;;;;5079628;28;20051;-65
2024/01/16 02:51:04;;;;;;;6.50;0.80;;;-0.40;99.90;;;;;;5081779;28;20067;-65
2024/01/16 02:53:30;;;;;;;3.28;1.00;;;-0.40;99.90;;;;;;5080917;28;20054;-65
2024/01/16 02:55:59;;;;;;;6.20;0.95;;;-0.30;99.90;;;;;;5080895;28;20421;-63
2024/01/16 02:58:29;;;;;;;12.35;2.45;;;-0.30;99.90;;;;;;5080644;28;20044;-62
2024/01/16 03:00:55;;;;;;;3.33;0.70;;;-0.20;99.90;;;;;;5081968;28;20055;-64
2024/01/16 03:03:21;;;;;;;6.85;1.15;;;-0.20;99.90;;;;;;5081000;28;20372;-64
2024/01/16 03:05:47;;;;;;;5.57;0.82;;;-0.10;99.90;;;;;;5082145;28;20069;-64
2024/01/16 03:08:13;;;;;;;9.10;1.45;;;-0.10;99.90;;;;;;5081789;28;20036;-63
2024/01/16 03:10:39;;;;;;;8.52;0.80;;;-0.10;99.90;;;;;;5079137;28;20044;-64
2024/01/16 03:13:05;;;;;;;7.68;1.10;;;-0.20;99.90;;;;;;5063938;28;20071;-63
2024/01/16 03:15:31;;;;;;;6.43;0.98;;;-0.20;99.90;;;;;;5079162;28;20471;-63
2024/01/16 03:18:00;;;;;;;9.68;1.02;;;-0.20;99.90;;;;;;5080588;28;20525;-65
2024/01/16 03:20:29;;;;;;;5.25;0.90;;;-0.20;99.90;;;;;;5080064;28;20059;-64
2024/01/16 03:22:55;;;;;;;5.90;0.90;;;-0.30;99.90;;;;;;5081779;28;20507;-67
2024/01/16 03:25:21;;;;;;;10.65;1.17;;;-0.30;99.90;;;;;;5082485;28;20040;-64
2024/01/16 03:27:47;;;;;;;10.32;1.48;;;-0.40;99.90;;;;;;5081217;28;20061;-64
2024/01/16 03:30:13;;;;;;;8.30;0.85;;;-0.40;99.90;;;;;;5079907;28;20047;-65
2024/01/16 03:32:39;;;;;;;3.97;0.77;;;-0.50;99.90;;;;;;5083127;28;20040;-63
2024/01/16 03:35:06;;;;;;;3.05;0.70;;;-0.40;99.90;;;;;;5081853;28;20106;-66
2024/01/16 03:37:32;;;;;;;6.47;1.17;;;-0.50;99.90;;;;;;5080065;28;20119;-66
2024/01/16 03:39:57;;;;;;;7.13;0.82;;;-0.50;99.90;;;;;;5080981;28;20725;-64
2024/01/16 03:42:23;;;;;;;5.93;1.33;;;-0.50;99.90;;;;;;5079202;28;20117;-66
2024/01/16 03:44:49;;;;;;;6.85;0.80;;;-0.50;99.90;;;;;;5083665;28;20477;-65
2024/01/16 03:47:15;;;;;;;6.47;0.90;;;-0.60;99.90;;;;;;5079862;28;20233;-65
2024/01/16 03:49:41;;;;;;;7.93;1.33;;;-0.60;99.90;;;;;;5081375;28;20036;-64
2024/01/16 03:52:07;;;;;;;6.22;1.40;;;-0.60;99.90;;;;;;5079080;28;20036;-64
2024/01/16 03:54:33;;;;;;;3.75;0.82;;;-0.60;99.90;;;;;;5081236;28;20032;-66
2024/01/16 03:56:58;;;;;;;8.25;0.90;;;-0.50;99.90;;;;;;5081068;28;20036;-64
2024/01/16 03:59:24;;;;;;;6.82;0.88;;;-0.50;99.90;;;;;;5081995;28;20093;-63
2024/01/16 04:01:49;;;;;;;7.40;1.05;;;-0.50;99.90;;;;;;5079626;28;21616;-65
2024/01/16 04:04:16;;;;;;;3.88;0.60;;;-0.60;99.90;;;;;;5080921;28;20052;-65
2024/01/16 04:06:42;;;;;;;7.78;1.48;;;-0.60;99.90;;;;;;5062013;28;20067;-64
2024/01/16 04:09:09;;;;;;;6.47;1.20;;;-0.60;99.90;;;;;;5081446;28;20356;-66
2024/01/16 04:11:35;;;;;;;8.40;1.30;;;-0.60;99.90;;;;;;5079924;28;20069;-65
2024/01/16 04:14:00;;;;;;;9.60;1.30;;;-0.60;99.90;;;;;;5080393;28;20048;-65
2024/01/16 04:16:26;;;;;;;4.78;0.95;;;-0.60;99.90;;;;;;5080859;28;20039;-67
2024/01/16 04:18:52;;;;;;;6.95;1.42;;;-0.70;99.90;;;;;;5081541;28;20173;-64
2024/01/16 04:21:18;;;;;;;6.13;0.88;;;-0.70;99.90;;;;;;5079591;28;20051;-63
2024/01/16 04:23:44;;;;;;;5.68;1.27;;;-0.70;99.90;;;;;;5078759;28;20506;-67
2024/01/16 04:26:09;;;;;;;4.72;0.95;;;-0.70;99.90;;;;;;5078134;28;20106;-65
2024/01/16 04:28:37;;;;;;;4.80;1.27;;;-0.70;99.90;;;;;;5078310;28;20130;-65
2024/01/16 04:31:05;;;;;;;6.85;0.95;;;-0.70;99.90;;;;;;5079450;28;20089;-65
2024/01/16 04:33:31;;;;;;;7.18;1.00;;;-0.70;99.90;;;;;;5080813;28;20055;-64
2024/01/16 04:35:57;;;;;;;6.65;1.08;;;-0.60;99.90;;;;;;5079661;28;20044;-64
2024/01/16 04:38:23;;;;;;;5.93;1.10;;;-0.70;99.90;;;;;;5078959;28;20032;-67
2024/01/16 04:40:49;;;;;;;5.45;1.15;;;-0.60;99.90;;;;;;5077258;28;20055;-65
2024/01/16 04:43:15;;;;;;;6.20;0.80;;;-0.70;99.90;;;;;;5079348;28;20046;-64
2024/01/16 04:45:41;;;;;;;6.22;0.90;;;-0.70;99.90;;;;;;5079138;28;20147;-67
2024/01/16 04:48:08;;;;;;;8.23;0.88;;;-0.60;99.90;;;;;;5062836;28;20043;-64
2024/01/16 04:50:34;;;;;;;6.93;1.38;;;-0.60;99.90;;;;;;5078425;28;20123;-65
2024/01/16 04:53:01;;;;;;;6.50;0.80;;;-0.60;99.90;;;;;;5081163;28;20036;-63
2024/01/16 04:55:27;;;;;;;9.77;0.98;;;-0.60;99.90;;;;;;5077913;28;20123;-63
2024/01/16 04:57:54;;;;;;;4.20;0.80;;;-0.60;99.90;;;;;;5080394;28;20039;-66
2024/01/16 05:00:20;;;;;;;4.65;1.00;;;-0.60;99.90;;;;;;5077872;28;20131;-64
2024/01/16 05:02:46;;;;;;;5.95;0.90;;;-0.60;99.90;;;;;;5080004;28;20131;-66
2024/01/16 05:05:12;;;;;;;9.57;1.25;;;-0.50;99.90;;;;;;5078391;28;20398;-65
2024/01/16 05:07:38;;;;;;;10.93;1.55;;;-0.60;99.90;;;;;;5079308;28;20036;-64
2024/01/16 05:10:04;;;;;;;4.38;0.70;;;-0.60;99.90;;;;;;5080620;28;20027;-65
2024/01/16 05:12:30;;;;;;;7.18;0.77;;;-0.50;99.90;;;;;;5079528;28;20063;-65
2024/01/16 05:14:55;;;;;;;3.13;0.90;;;-0.60;99.90;;;;;;5078383;28;20047;-65
2024/01/16 05:17:21;;;;;;;5.97;1.40;;;-0.50;99.90;;;;;;5079222;28;20044;-65
2024/01/16 05:19:47;;;;;;;9.77;1.17;;;-0.50;99.90;;;;;;5081127;28;20418;-63
2024/01/16 05:22:12;;;;;;;7.32;1.20;;;-0.50;99.90;;;;;;5080523;28;20051;-64
2024/01/16 05:24:38;;;;;;;6.32;1.23;;;-0.50;99.90;;;;;;5080806;28;20028;-65
2024/01/16 05:27:04;;;;;;;5.95;0.88;;;-0.50;99.90;;;;;;5079539;28;20040;-69
2024/01/16 05:29:31;;;;;;;4.93;0.93;;;-0.50;99.90;;;;;;5080036;28;20406;-65
2024/01/16 05:31:56;;;;;;;6.05;1.10;;;-0.50;99.90;;;;;;5078864;28;20119;-68
2024/01/16 05:34:22;;;;;;;4.88;1.00;;;-0.50;99.90;;;;;;5079221;28;20135;-64
2024/01/16 05:36:48;;;;;;;5.22;1.00;;;-0.40;99.90;;;;;;5079476;28;20482;-65
2024/01/16 05:39:13;;;;;;;8.73;1.80;;;-0.50;99.90;;;;;;5079632;28;20124;-63
2024/01/16 05:41:40;;;;;;;7.20;1.60;;;-0.50;99.90;;;;;;5078338;28;20245;-64
2024/01/16 05:44:05;;;;;;;7.72;1.70;;;-0.40;99.90;;;;;;5081755;28;20040;-67
2024/01/16 05:46:34;;;;;;;8.20;1.40;;;-0.40;99.90;;;;;;5078062;28;20394;-63
2024/01/16 05:49:00;;;;;;;5.80;1.13;;;-0.40;99.90;;;;;;5061381;28;20143;-64
2024/01/16 05:51:29;;;;;;;6.57;1.52;;;-0.40;99.90;;;;;;5079251;28;20119;-64
2024/01/16 05:53:55;;;;;;;6.85;1.20;;;-0.30;99.90;;;;;;5084354;28;20085;-64
2024/01/16 05:56:20;;;;;;;6.63;1.73;;;-0.30;99.90;;;;;;5082380;28;20052;-63
2024/01/16 05:58:46;;;;;;;6.90;1.65;;;-0.30;99.90;;;;;;5084856;28;20044;-64
2024/01/16 06:01:14;;;;;;;6.50;1.15;;;-0.30;99.90;;;;;;5066106;28;20437;-64
2024/01/16 06:03:41;;;;;;;3.05;1.50;;;-0.30;99.90;;;;;;5071948;28;20045;-64
2024/01/16 06:06:07;;;;;;;9.25;1.40;;;-0.30;99.90;;;;;;5092899;28;20032;-65
2024/01/16 06:08:33;;;;;;;5.57;1.30;;;-0.30;99.90;;;;;;5093054;28;20040;-65
2024/01/16 06:10:59;;;;;;;6.28;1.40;;;-0.30;99.90;;;;;;5088221;28;20051;-64
2024/01/16 06:13:24;;;;;;;6.95;1.65;;;-0.30;99.90;;;;;;5072413;28;20044;-63
2024/01/16 06:15:50;;;;;;;5.85;1.30;;;-0.30;99.90;;;;;;5072723;28;20487;-66
2024/01/16 06:18:16;;;;;;;6.13;1.88;;;-0.30;99.90;;;;;;5072457;28;20070;-63
2024/01/16 06:20:41;;;;;;;7.32;1.38;;;-0.40;99.90;;;;;;5071663;28;20063;-66
2024/01/16 06:23:07;;;;;;;8.32;2.42;;;-0.30;99.90;;;;;;5072198;28;20048;-65
2024/01/16 06:25:32;;;;;;;9.70;1.98;;;-0.40;99.90;;;;;;5071852;28;20052;-66
2024/01/16 06:27:58;;;;;;;7.93;1.88;;;-0.30;99.90;;;;;;5072141;28;20090;-66
2024/01/16 06:30:24;;;;;;;6.65;1.90;;;-0.30;99.90;;;;;;5072037;28;20113;-67
2024/01/16 06:32:49;;;;;;;9.35;2.47;;;-0.40;99.90;;;;;;5071360;28;20045;-67
2024/01/16 06:35:16;;;;;;;8.77;2.00;;;-0.30;99.90;;;;;;5072462;28;20047;-66
2024/01/16 06:37:42;;;;;;;10.65;1.90;;;-0.30;99.90;;;;;;5071922;28;20488;-66
2024/01/16 06:40:09;;;;;;;6.75;2.00;;;-0.30;99.90;;;;;;5072121;28;20059;-67
2024/01/16 06:42:35;;;;;;;7.38;2.20;;;-0.30;99.90;;;;;;5071645;28;20040;-66
2024/01/16 06:45:02;;;;;;;5.75;2.42;;;-0.30;99.90;;;;;;5072073;28;20037;-64
2024/01/16 06:47:27;;;;;;;12.20;4.22;;;-0.30;99.90;;;;;;5071921;28;20044;-63
2024/01/16 06:49:53;;;;;;;13.88;3.00;;;-0.30;99.90;;;;;;5071494;28;20174;-64
2024/01/16 06:52:19;;;;;;;7.57;2.25;;;-0.20;99.90;;;;;;5072103;28;20036;-64
2024/01/16 06:54:45;;;;;;;5.53;2.33;;;-0.20;99.90;;;;;;5071458;28;20033;-63
2024/01/16 06:57:10;;;;;;;8.13;2.55;;;-0.20;99.90;;;;;;5072973;28;20537;-63
2024/01/16 06:59:36;;;;;;;3.85;2.22;;;-0.20;99.90;;;;;;5071304;28;20033;-64
2024/01/16 07:02:03;;;;;;;6.47;2.67;;;-0.20;99.90;;;;;;5071557;28;20569;-65
2024/01/16 07:04:29;;;;;;;4.97;2.30;;;-0.10;99.90;;;;;;5054248;28;20132;-62
2024/01/16 07:06:54;;;;;;;5.95;2.60;;;-0.10;99.90;;;;;;5072494;28;20111;-63
2024/01/16 07:09:20;;;;;;;5.28;2.58;;;-0.10;99.90;;;;;;5071772;28;20040;-63
2024/01/16 07:11:47;;;;;;;9.15;2.28;;;-0.10;99.90;;;;;;5071269;28;20044;-65
2024/01/16 07:14:13;;;;;;;6.75;2.47;;;-0.10;99.90;;;;;;5071419;28;20040;-65
2024/01/16 07:16:39;;;;;;;7.65;2.63;;;-0.10;99.90;;;;;;5070987;28;20403;-64
2024/01/16 07:19:05;;;;;;;7.38;2.55;;;-0.20;99.90;;;;;;5071235;28;20045;-67
2024/01/16 07:21:30;;;;;;;7.85;2.45;;;-0.20;99.90;;;;;;5072129;28;20055;-65
2024/01/16 07:23:57;;;;;;;8.27;2.80;;;-0.20;99.90;;;;;;5070765;28;20483;-64
2024/01/16 07:26:23;;;;;;;7.03;2.97;;;-0.10;99.90;;;;;;5071106;28;20041;-64
2024/01/16 07:28:49;;;;;;;6.53;3.08;;;-0.20;99.90;;;;;;5072181;28;20097;-65
2024/01/16 07:31:16;;;;;;;8.15;2.90;;;-0.20;99.90;;;;;;5072108;28;20028;-66
2024/01/16 07:33:42;;;;;;;6.47;3.05;;;-0.10;99.90;;;;;;5070984;28;20056;-63
2024/01/16 07:36:09;;;;;;;6.30;3.15;;;-0.20;99.90;;;;;;5070845;28;20123;-66
2024/01/16 07:38:36;;;;;;;6.65;3.17;;;-0.20;99.90;;;;;;5070824;28;20048;-65
2024/01/16 07:41:02;;;;;;;9.15;3.50;;;-0.20;99.90;;;;;;5070433;28;20056;-64
2024/01/16 07:43:29;;;;;;;6.78;3.35;;;-0.20;99.90;;;;;;5054212;28;20407;-62
2024/01/16 07:45:57;;;;;;;8.90;3.42;;;-0.20;99.90;;;;;;5070628;28;20518;-66
2024/01/16 07:48:23;;;;;;;7.90;3.38;;;-0.10;99.90;;;;;;5070682;28;20032;-64
2024/01/16 07:50:49;;;;;;;10.90;3.80;;;-0.20;99.90;;;;;;5053877;28;20041;-67
2024/01/16 07:53:15;;;;;;;9.50;3.40;;;-0.10;99.90;;;;;;5054057;28;20495;-65
2024/01/16 07:55:42;;;;;;;8.98;3.50;;;-0.10;99.90;;;;;;5071812;28;20055;-65
2024/01/16 07:58:10;;;;;;;11.50;3.88;;;-0.10;99.90;;;;;;5070205;28;20119;-65
2024/01/16 08:00:36;;;;;;;8.48;3.38;;;0.00;99.90;;;;;;5070533;28;20074;-64
2024/01/16 08:03:01;;;;;;;8.68;3.42;;;0.00;99.90;;;;;;5069982;28;20119;-63
2024/01/16 08:05:27;;;;;;;8.30;3.40;;;0.10;99.90;;;;;;5070610;28;20086;-66
2024/01/16 08:07:54;;;;;;;8.25;3.17;;;0.10;99.90;;;;;;5070196;28;20423;-65
2024/01/16 08:10:19;;;;;;;8.27;4.20;;;0.10;99.90;;;;;;5071657;28;20040;-64
2024/01/16 08:12:46;;;;;;;7.35;3.75;;;0.10;99.90;;;;;;5070349;28;20102;-64
2024/01/16 08:15:11;;;;;;;10.50;4.28;;;0.10;99.90;;;;;;5069226;28;20048;-65
2024/01/16 08:17:37;;;;;;;7.15;4.15;;;0.10;99.90;;;;;;5071297;28;20116;-66
2024/01/16 08:20:03;;;;;;;9.48;4.22;;;0.10;99.90;;;;;;5069839;28;20068;-66
2024/01/16 08:22:29;;;;;;;10.05;4.05;;;0.20;99.90;;;;;;5071093;28;20040;-62
2024/01/16 08:24:55;;;;;;;9.57;4.35;;;0.20;99.90;;;;;;5070023;28;20445;-66
2024/01/16 08:27:20;;;;;;;7.57;4.10;;;0.20;99.90;;;;;;5053352;28;20090;-65
2024/01/16 08:29:48;;;;;;;12.30;4.97;;;0.20;99.90;;;;;;5071064;28;20125;-65
2024/01/16 08:32:13;;;;;;;8.75;4.20;;;0.10;99.90;;;;;;5071006;28;20083;-65
2024/01/16 08:34:39;;;;;;;8.80;3.97;;;0.20;99.90;;;;;;5071339;28;20468;-65
2024/01/16 08:37:05;;;;;;;9.10;4.28;;;0.20;99.90;;;;;;5069704;28;20400;-64
2024/01/16 08:39:33;;;;;;;7.60;4.68;;;0.20;99.90;;;;;;5069919;28;20045;-66
2024/01/16 08:41:59;;;;;;;9.75;4.90;;;0.30;99.90;;;;;;5069240;28;20435;-65
2024/01/16 08:44:24;;;;;;;11.98;5.03;;;0.30;99.90;;;;;;5069763;28;20032;-66
2024/01/16 08:46:50;;;;;;;9.48;5.32;;;0.30;99.90;;;;;;5069611;28;20048;-63
2024/01/16 08:49:16;;;;;;;11.43;4.80;;;0.30;99.90;;;;;;5070604;28;20476;-64
2024/01/16 08:51:41;;;;;;;10.52;5.30;;;0.30;99.90;;;;;;5069894;28;20052;-65
2024/01/16 08:54:07;;;;;;;10.98;4.95;;;0.30;99.90;;;;;;5069300;28;20044;-63
2024/01/16 08:56:33;;;;;;;9.63;4.93;;;0.30;99.90;;;;;;5069489;28;20044;-65
2024/01/16 08:58:58;;;;;;;10.95;5.20;;;0.30;99.90;;;;;;5069707;28;20395;-68
2024/01/16 09:01:24;;;;;;;9.82;5.15;;;0.40;99.90;;;;;;5069250;28;20044;-63
2024/01/16 09:03:50;;;;;;;12.35;5.30;;;0.40;99.90;;;;;;5052237;28;20056;-65
2024/01/16 09:06:15;;;;;;;8.15;5.03;;;0.40;99.90;;;;;;5069107;28;20048;-63
2024/01/16 09:08:41;;;;;;;9.02;5.60;;;0.40;99.90;;;;;;5069341;28;20123;-66
2024/01/16 09:11:07;;;;;;;10.57;5.57;;;0.40;99.90;;;;;;5069079;28;20040;-66
2024/01/16 09:13:33;;;;;;;11.00;5.55;;;0.50;99.90;;;;;;5069226;28;20053;-66
2024/01/16 09:15:59;;;;;;;11.90;5.13;;;0.50;99.90;;;;;;5069345;28;20087;-66
2024/01/16 09:18:24;;;;;;;11.45;5.40;;;0.60;99.90;;;;;;5070454;28;20064;-65
2024/01/16 09:20:50;;;;;;;10.10;4.63;;;0.60;99.90;;;;;;5068921;28;20803;-63
2024/01/16 09:23:16;;;;;;;12.48;4.97;;;0.60;99.90;;;;;;5070386;28;20045;-66
2024/01/16 09:25:41;;;;;;;11.38;4.53;;;0.60;99.90;;;;;;5070560;28;20128;-63
2024/01/16 09:28:07;;;;;;;10.65;4.45;;;0.70;99.90;;;;;;5070548;28;20139;-64
2024/01/16 09:30:33;;;;;;;10.13;4.35;;;0.70;99.90;;;;;;5073320;28;20082;-64
2024/01/16 09:32:59;;;;;;;9.82;5.05;;;0.70;99.90;;;;;;5073387;28;20445;-66
2024/01/16 09:35:24;;;;;;;8.63;4.53;;;0.80;99.90;;;;;;5074423;28;20072;-66
2024/01/16 09:37:50;;;;;;;9.73;4.85;;;0.80;99.90;;;;;;5073232;28;20147;-66
2024/01/16 09:40:16;;;;;;;9.23;4.22;;;0.80;99.90;;;;;;5055549;28;20048;-65
2024/01/16 09:42:43;;;;;;;6.63;4.13;;;0.80;99.90;;;;;;5072883;28;20375;-63
2024/01/16 09:45:09;;;;;;;8.48;4.47;;;0.90;99.90;;;;;;5073033;28;20044;-65
2024/01/16 09:47:37;;;;;;;5.70;3.78;;;0.90;99.90;;;;;;5066043;28;20426;-62
2024/01/16 09:50:03;;;;;;;7.20;3.70;;;0.90;99.90;;;;;;5072816;28;20041;-64
2024/01/16 09:52:30;;;;;;;7.95;3.70;;;0.90;99.90;;;;;;5073061;28;20044;-64
2024/01/16 09:54:56;;;;;;;8.25;3.55;;;1.00;99.90;;;;;;5056245;28;20040;-66
2024/01/16 09:57:26;;;;;;;6.25;3.30;;;0.90;99.90;;;;;;5072443;28;20119;-65
2024/01/16 09:59:57;;;;;;;5.65;2.90;;;1.00;99.90;;;;;;5072661;28;20045;-64
2024/01/16 10:02:23;;;;;;;6.63;2.90;;;1.00;99.90;;;;;;5072745;28;20513;-65
2024/01/16 10:04:49;;;;;;;5.82;2.50;;;0.90;99.90;;;;;;5072864;28;20078;-65
2024/01/16 10:07:16;;;;;;;6.70;2.28;;;1.00;99.90;;;;;;5072881;28;20036;-66
2024/01/16 10:09:43;;;;;;;5.80;2.50;;;1.00;99.90;;;;;;5064722;28;20430;-65
2024/01/16 10:12:10;;;;;;;4.38;2.20;;;1.00;99.90;;;;;;5072492;28;20044;-64
2024/01/16 10:14:38;;;;;;;6.53;2.35;;;1.00;99.90;;;;;;5072118;28;20036;-67
2024/01/16 10:17:23;;;;;;;10.25;2.30;;;1.00;99.90;;;;;;5072434;28;20040;-65
2024/01/16 10:19:54;;;;;;;4.57;1.70;;;1.00;99.90;;;;;;5055499;28;20123;-63
2024/01/16 10:22:25;;;;;;;5.43;1.57;;;1.00;99.90;;;;;;5073171;28;20061;-65
2024/01/16 10:25:12;;;;;;;5.45;1.40;;;1.00;99.90;;;;;;5076749;28;20067;-65
2024/01/16 10:27:39;;;;;;;4.68;1.38;;;0.90;99.90;;;;;;5092289;28;20036;-65
2024/01/16 10:30:06;;;;;;;3.90;1.20;;;1.00;99.90;;;;;;5092381;28;20079;-65
2024/01/16 10:32:37;;;;;;;4.50;1.73;;;1.00;99.90;;;;;;5073834;28;20086;-66
2024/01/16 10:35:07;;;;;;;7.00;1.40;;;0.90;99.90;;;;;;5073700;28;20487;-65
2024/01/16 10:37:49;;;;;;;7.22;1.42;;;1.00;99.90;;;;;;5071854;28;20044;-65
2024/01/16 10:40:20;;;;;;;9.40;1.80;;;0.90;99.90;;;;;;5055076;28;20706;-66
2024/01/16 10:42:56;;;;;;;7.15;1.42;;;0.90;99.90;;;;;;5071994;28;20178;-63
2024/01/16 10:45:22;;;;;;;3.47;1.20;;;0.90;99.90;;;;;;5071846;28;20101;-64
2024/01/16 10:47:48;;;;;;;4.32;1.42;;;0.80;99.90;;;;;;5071857;28;20115;-64
2024/01/16 10:50:14;;;;;;;4.63;1.10;;;0.80;99.90;;;;;;5071805;28;20032;-64
2024/01/16 10:52:51;;;;;;;4.90;1.30;;;0.90;99.90;;;;;;5072851;28;20457;-64
2024/01/16 10:55:22;;;;;;;6.25;1.40;;;0.80;99.90;;;;;;5055377;28;20052;-64
2024/01/16 10:57:49;;;;;;;7.72;1.20;;;0.80;99.90;;;;;;5071530;28;20102;-68
2024/01/16 11:00:18;;;;;;;7.68;1.20;;;0.80;99.90;;;;;;5078303;28;20040;-65
2024/01/16 11:02:50;;;;;;;4.78;1.52;;;0.80;99.90;;;;;;5091610;28;20036;-64
2024/01/16 11:05:17;;;;;;;4.07;1.10;;;0.80;99.90;;;;;;5093142;28;20032;-66
2024/01/16 11:07:44;;;;;;;5.13;1.40;;;0.80;99.90;;;;;;5091734;28;20165;-67
2024/01/16 11:10:10;;;;;;;5.90;1.10;;;0.80;99.90;;;;;;5091453;28;20043;-65
2024/01/16 11:12:39;;;;;;;5.80;1.00;;;0.80;99.90;;;;;;5091382;28;20058;-65
2024/01/16 11:15:07;;;;;;;6.93;1.50;;;0.70;99.90;;;;;;5083354;28;20040;-64
2024/01/16 11:17:34;;;;;;;4.80;1.27;;;0.70;99.90;;;;;;5091487;28;20105;-66
2024/01/16 11:20:00;;;;;;;8.27;1.50;;;0.70;99.90;;;;;;5092579;28;20078;-69
2024/01/16 11:22:28;;;;;;;7.30;1.60;;;0.70;99.90;;;;;;5091380;28;20101;-65
2024/01/16 11:25:13;;;;;;;9.15;1.48;;;0.70;99.90;;;;;;5090072;28;20420;-64
2024/01/16 11:27:40;;;;;;;6.72;1.67;;;0.70;99.90;;;;;;5089832;28;20506;-66
2024/01/16 11:30:11;;;;;;;7.97;2.03;;;0.70;99.90;;;;;;5091041;28;20395;-65
2024/01/16 11:32:40;;;;;;;5.07;1.10;;;0.70;99.90;;;;;;5091211;28;20050;-66
2024/01/16 11:35:07;;;;;;;5.75;1.60;;;0.70;99.90;;;;;;5089699;28;20039;-66
2024/01/16 11:37:36;;;;;;;4.70;1.80;;;0.70;99.90;;;;;;5091337;28;20085;-65
2024/01/16 11:40:17;;;;;;;6.32;1.95;;;0.70;99.90;;;;;;5089850;28;20040;-63
2024/01/16 11:42:44;;;;;;;9.85;2.42;;;0.80;99.90;;;;;;5072010;28;20403;-66
2024/01/16 11:45:28;;;;;;;4.93;2.38;;;0.80;99.90;;;;;;5069345;28;20394;-65
2024/01/16 11:48:15;;;;;;;9.48;3.80;;;0.90;99.90;;;;;;5069283;28;20048;-64
2024/01/16 11:50:42;;;;;;;8.27;4.25;;;0.90;99.90;;;;;;5070784;28;20069;-65
2024/01/16 11:53:08;;;;;;;11.73;5.75;;;1.00;99.90;;;;;;5070638;28;20420;-63
2024/01/16 11:56:10;;;;;;;17.70;6.75;;;1.00;99.90;;;;;;5087862;28;20032;-65
2024/01/16 11:58:49;;;;;;;12.20;6.60;;;1.00;99.90;;;;;;5090878;28;20044;-64
2024/01/16 12:01:19;;;;;;;13.38;7.43;;;1.10;99.90;;;;;;5053848;28;20143;-65
2024/01/16 12:03:45;;;;;;;11.88;6.13;;;1.20;99.90;;;;;;5070178;28;20079;-66
2024/01/16 12:06:11;;;;;;;13.73;6.85;;;1.20;99.90;;;;;;5071374;28;20535;-64
2024/01/16 12:08:37;;;;;;;11.70;6.90;;;1.30;99.90;;;;;;5059207;28;20399;-65
2024/01/16 12:11:03;;;;;;;8.82;6.32;;;1.30;99.90;;;;;;5090178;28;20104;-65
2024/01/16 12:13:30;;;;;;;12.27;6.70;;;1.40;99.90;;;;;;5073413;28;20462;-67
2024/01/16 12:16:05;;;;;;;14.05;7.00;;;1.30;99.90;;;;;;5090361;28;20501;-66
2024/01/16 12:18:31;;;;;;;12.93;6.10;;;1.40;99.90;;;;;;5075514;28;20059;-65
2024/01/16 12:20:58;;;;;;;11.50;5.80;;;1.50;99.90;;;;;;5069454;28;20053;-64
2024/01/16 12:23:24;;;;;;;10.05;5.70;;;1.40;99.90;;;;;;5070169;28;20403;-65
2024/01/16 12:25:54;;;;;;;14.13;6.22;;;1.50;99.90;;;;;;5069998;28;20052;-65
2024/01/16 12:28:21;;;;;;;11.52;5.90;;;1.50;99.90;;;;;;5071310;28;20396;-64
2024/01/16 12:30:54;;;;;;;8.02;5.45;;;1.50;99.90;;;;;;5085202;28;20443;-66
2024/01/16 12:33:22;;;;;;;11.52;5.13;;;1.50;99.90;;;;;;5091352;28;20044;-66
2024/01/16 12:35:48;;;;;;;12.00;4.90;;;1.60;99.90;;;;;;5089902;28;20047;-65
2024/01/16 12:38:16;;;;;;;10.57;4.88;;;1.80;99.90;;;;;;5089737;28;20070;-65
2024/01/16 12:40:47;;;;;;;10.02;4.68;;;1.90;99.90;;;;;;5089969;28;20490;-65
2024/01/16 12:43:13;;;;;;;7.32;4.13;;;2.10;99.90;;;;;;5087694;28;20044;-66
2024/01/16 12:45:39;;;;;;;9.05;4.70;;;2.10;99.90;;;;;;5069835;28;20149;-64